sensor_id;sensor_type;location;lat;lon;timestamp;pressure;altitude;pressure_sealevel;temperature;humidity
50867;BME280;36839;51.946;21.002;2022-12-31T00:01:37;100136.61;;;0.61;100.00
50867;BME280;36839;51.946;21.002;2022-12-31T00:04:03;100126.04;;;0.55;100.00
50867;BME280;36839;51.946;21.002;2022-12-31T00:06:33;100123.32;;;0.55;100.00
50867;BME280;36839;51.946;21.002;2022-12-31T00:09:02;100112.66;;;0.53;100.00
50867;BME280;36839;51.946;21.002;2022-12-31T00:11:29;100112.56;;;0.51;100.00
50867;BME280;36839;51.946;21.002;2022-12-31T00:13:56;100094.67;;;0.46;100.00
50867;BME280;36839;51.946;21.002;2022-12-31T00:16:26;100094.67;;;0.46;100.00
50867;BME280;36839;51.946;21.002;2022-12-31T00:18:55;100096.75;;;0.37;100.00
50867;BME280;36839;51.946;21.002;2022-12-31T00:21:25;100100.20;;;0.35;100.00
50867;BME280;36839;51.946;21.002;2022-12-31T00:23:51;100099.88;;;0.27;100.00
50867;BME280;36839;51.946;21.002;2022-12-31T00:26:20;100088.05;;;0.18;100.00
50867;BME280;36839;51.946;21.002;2022-12-31T00:28:50;100084.40;;;0.15;100.00
50867;BME280;36839;51.946;21.002;2022-12-31T00:31:19;100088.58;;;0.17;100.00
50867;BME280;36839;51.946;21.002;2022-12-31T00:33:46;100090.14;;;0.16;100.00
50867;BME280;36839;51.946;21.002;2022-12-31T00:36:19;100090.77;;;0.18;100.00
50867;BME280;36839;51.946;21.002;2022-12-31T00:38:47;100087.85;;;0.13;100.00
50867;BME280;36839;51.946;21.002;2022-12-31T00:41:15;100091.08;;;0.19;100.00
50867;BME280;36839;51.946;21.002;2022-12-31T00:43:42;100094.24;;;0.22;100.00
50867;BME280;36839;51.946;21.002;2022-12-31T00:46:09;100096.22;;;0.24;100.00
50867;BME280;36839;51.946;21.002;2022-12-31T00:48:36;100085.34;;;0.18;100.00
50867;BME280;36839;51.946;21.002;2022-12-31T00:51:05;100090.77;;;0.18;100.00
50867;BME280;36839;51.946;21.002;2022-12-31T00:53:32;100090.16;;;0.22;100.00
50867;BME280;36839;51.946;21.002;2022-12-31T00:56:00;100078.37;;;0.19;100.00
50867;BME280;36839;51.946;21.002;2022-12-31T00:58:27;100076.38;;;0.24;100.00
50867;BME280;36839;51.946;21.002;2022-12-31T01:00:53;100069.38;;;0.25;100.00
50867;BME280;36839;51.946;21.002;2022-12-31T01:03:19;100063.41;;;0.26;100.00
50867;BME280;36839;51.946;21.002;2022-12-31T01:05:46;100065.10;;;0.34;100.00
50867;BME280;36839;51.946;21.002;2022-12-31T01:08:12;100060.60;;;0.37;100.00
50867;BME280;36839;51.946;21.002;2022-12-31T01:10:39;100054.34;;;0.43;100.00
50867;BME280;36839;51.946;21.002;2022-12-31T01:13:23;100055.50;;;0.51;100.00
50867;BME280;36839;51.946;21.002;2022-12-31T01:15:50;100056.88;;;0.58;100.00
50867;BME280;36839;51.946;21.002;2022-12-31T01:18:16;100052.16;;;0.62;100.00
50867;BME280;36839;51.946;21.002;2022-12-31T01:20:44;100046.59;;;0.66;100.00
50867;BME280;36839;51.946;21.002;2022-12-31T01:23:12;100050.67;;;0.73;100.00
50867;BME280;36839;51.946;21.002;2022-12-31T01:25:40;100050.67;;;0.73;100.00
50867;BME280;36839;51.946;21.002;2022-12-31T01:28:10;100046.08;;;0.80;100.00
50867;BME280;36839;51.946;21.002;2022-12-31T01:30:38;100040.20;;;0.96;100.00
50867;BME280;36839;51.946;21.002;2022-12-31T01:33:05;100038.72;;;1.00;100.00
50867;BME280;36839;51.946;21.002;2022-12-31T01:35:34;100046.34;;;1.07;100.00
50867;BME280;36839;51.946;21.002;2022-12-31T01:38:00;100046.34;;;1.14;100.00
50867;BME280;36839;51.946;21.002;2022-12-31T01:40:27;100046.20;;;1.18;100.00
50867;BME280;36839;51.946;21.002;2022-12-31T01:42:57;100038.66;;;1.20;100.00
50867;BME280;36839;51.946;21.002;2022-12-31T01:45:23;100035.62;;;1.26;100.00
50867;BME280;36839;51.946;21.002;2022-12-31T01:47:55;100031.50;;;1.32;100.00
50867;BME280;36839;51.946;21.002;2022-12-31T01:50:30;100030.87;;;1.37;100.00
50867;BME280;36839;51.946;21.002;2022-12-31T01:53:01;100032.09;;;1.41;100.00
50867;BME280;36839;51.946;21.002;2022-12-31T01:55:42;100032.09;;;1.41;100.00
50867;BME280;36839;51.946;21.002;2022-12-31T01:58:20;100029.49;;;1.43;100.00
50867;BME280;36839;51.946;21.002;2022-12-31T02:00:46;100016.94;;;1.42;100.00
50867;BME280;36839;51.946;21.002;2022-12-31T02:03:13;100018.39;;;1.45;100.00
50867;BME280;36839;51.946;21.002;2022-12-31T02:08:10;99999.50;;;1.50;100.00
50867;BME280;36839;51.946;21.002;2022-12-31T02:10:37;99996.67;;;1.54;100.00
50867;BME280;36839;51.946;21.002;2022-12-31T02:13:03;99996.67;;;1.54;100.00
50867;BME280;36839;51.946;21.002;2022-12-31T02:15:38;99986.48;;;1.59;100.00
50867;BME280;36839;51.946;21.002;2022-12-31T02:18:04;99990.98;;;1.62;100.00
50867;BME280;36839;51.946;21.002;2022-12-31T02:20:48;99990.98;;;1.62;100.00
50867;BME280;36839;51.946;21.002;2022-12-31T02:23:32;99977.45;;;1.65;100.00
50867;BME280;36839;51.946;21.002;2022-12-31T02:31:38;99973.65;;;1.73;100.00
50867;BME280;36839;51.946;21.002;2022-12-31T02:34:31;99966.39;;;1.76;100.00
50867;BME280;36839;51.946;21.002;2022-12-31T02:37:00;99956.22;;;1.80;100.00
50867;BME280;36839;51.946;21.002;2022-12-31T02:39:28;99955.77;;;1.83;100.00
50867;BME280;36839;51.946;21.002;2022-12-31T02:41:56;99948.59;;;1.89;100.00
50867;BME280;36839;51.946;21.002;2022-12-31T02:44:27;99946.81;;;1.92;100.00
50867;BME280;36839;51.946;21.002;2022-12-31T02:47:19;99952.34;;;1.94;100.00
50867;BME280;36839;51.946;21.002;2022-12-31T02:50:11;99949.69;;;1.97;100.00
50867;BME280;36839;51.946;21.002;2022-12-31T02:58:13;99962.52;;;2.06;100.00
50867;BME280;36839;51.946;21.002;2022-12-31T03:00:44;99962.40;;;2.10;100.00
50867;BME280;36839;51.946;21.002;2022-12-31T03:03:28;99958.46;;;2.15;100.00
50867;BME280;36839;51.946;21.002;2022-12-31T03:05:55;99958.23;;;2.16;100.00
50867;BME280;36839;51.946;21.002;2022-12-31T03:08:24;99949.34;;;2.18;100.00
50867;BME280;36839;51.946;21.002;2022-12-31T03:10:51;99949.34;;;2.18;100.00
50867;BME280;36839;51.946;21.002;2022-12-31T03:13:17;99955.16;;;2.22;100.00
50867;BME280;36839;51.946;21.002;2022-12-31T03:15:44;99955.54;;;2.25;100.00
50867;BME280;36839;51.946;21.002;2022-12-31T03:18:15;99950.31;;;2.24;100.00
50867;BME280;36839;51.946;21.002;2022-12-31T03:20:45;99949.97;;;2.29;100.00
50867;BME280;36839;51.946;21.002;2022-12-31T03:23:36;99955.67;;;2.37;100.00
50867;BME280;36839;51.946;21.002;2022-12-31T03:26:04;99961.50;;;2.41;100.00
50867;BME280;36839;51.946;21.002;2022-12-31T03:28:39;99955.36;;;2.45;100.00
50867;BME280;36839;51.946;21.002;2022-12-31T03:31:06;99952.52;;;2.49;100.00
50867;BME280;36839;51.946;21.002;2022-12-31T03:33:35;99937.59;;;2.52;100.00
50867;BME280;36839;51.946;21.002;2022-12-31T03:36:05;99937.59;;;2.52;100.00
50867;BME280;36839;51.946;21.002;2022-12-31T03:38:32;99932.91;;;2.59;100.00
50867;BME280;36839;51.946;21.002;2022-12-31T03:40:59;99937.83;;;2.60;100.00
50867;BME280;36839;51.946;21.002;2022-12-31T03:43:25;99940.17;;;2.65;100.00
50867;BME280;36839;51.946;21.002;2022-12-31T03:45:53;99944.66;;;2.69;100.00
50867;BME280;36839;51.946;21.002;2022-12-31T03:48:21;99939.28;;;2.71;100.00
50867;BME280;36839;51.946;21.002;2022-12-31T03:50:48;99939.28;;;2.71;100.00
50867;BME280;36839;51.946;21.002;2022-12-31T03:53:15;99942.47;;;2.77;100.00
50867;BME280;36839;51.946;21.002;2022-12-31T03:55:42;99942.47;;;2.77;100.00
50867;BME280;36839;51.946;21.002;2022-12-31T03:58:08;99949.73;;;2.83;100.00
50867;BME280;36839;51.946;21.002;2022-12-31T04:00:35;99964.37;;;2.89;100.00
50867;BME280;36839;51.946;21.002;2022-12-31T04:03:01;99961.71;;;2.92;100.00
50867;BME280;36839;51.946;21.002;2022-12-31T04:05:28;99963.91;;;2.92;100.00
50867;BME280;36839;51.946;21.002;2022-12-31T04:07:54;99964.00;;;2.95;100.00
50867;BME280;36839;51.946;21.002;2022-12-31T04:10:21;99965.44;;;2.97;100.00
50867;BME280;36839;51.946;21.002;2022-12-31T04:12:47;99977.25;;;3.00;100.00
50867;BME280;36839;51.946;21.002;2022-12-31T04:15:18;99978.69;;;3.03;100.00
50867;BME280;36839;51.946;21.002;2022-12-31T04:17:45;99972.20;;;3.04;100.00
50867;BME280;36839;51.946;21.002;2022-12-31T04:20:12;99972.20;;;3.04;100.00
50867;BME280;36839;51.946;21.002;2022-12-31T04:22:39;99984.61;;;3.09;100.00
50867;BME280;36839;51.946;21.002;2022-12-31T04:25:06;99970.20;;;3.11;100.00
50867;BME280;36839;51.946;21.002;2022-12-31T04:27:41;99970.20;;;3.11;100.00
50867;BME280;36839;51.946;21.002;2022-12-31T04:30:06;99978.78;;;3.14;100.00
50867;BME280;36839;51.946;21.002;2022-12-31T04:32:33;99977.72;;;3.15;100.00
50867;BME280;36839;51.946;21.002;2022-12-31T04:34:59;99972.63;;;3.19;100.00
50867;BME280;36839;51.946;21.002;2022-12-31T04:37:25;99968.06;;;3.22;100.00
50867;BME280;36839;51.946;21.002;2022-12-31T04:39:52;99962.17;;;3.25;100.00
50867;BME280;36839;51.946;21.002;2022-12-31T04:42:18;99961.64;;;3.26;100.00
50867;BME280;36839;51.946;21.002;2022-12-31T04:44:44;99961.64;;;3.26;100.00
50867;BME280;36839;51.946;21.002;2022-12-31T04:47:11;99955.94;;;3.36;100.00
50867;BME280;36839;51.946;21.002;2022-12-31T04:49:37;99961.75;;;3.40;100.00
50867;BME280;36839;51.946;21.002;2022-12-31T04:52:03;99966.78;;;3.43;100.00
50867;BME280;36839;51.946;21.002;2022-12-31T04:54:30;99961.98;;;3.48;100.00
50867;BME280;36839;51.946;21.002;2022-12-31T04:56:56;99961.98;;;3.48;100.00
50867;BME280;36839;51.946;21.002;2022-12-31T04:59:22;99950.62;;;3.51;100.00
50867;BME280;36839;51.946;21.002;2022-12-31T05:01:49;99945.16;;;3.51;100.00
50867;BME280;36839;51.946;21.002;2022-12-31T05:04:15;99948.39;;;3.50;100.00
50867;BME280;36839;51.946;21.002;2022-12-31T05:06:41;99952.72;;;3.49;100.00
50867;BME280;36839;51.946;21.002;2022-12-31T05:09:08;99949.98;;;3.49;100.00
50867;BME280;36839;51.946;21.002;2022-12-31T05:11:34;99956.28;;;3.49;100.00
50867;BME280;36839;51.946;21.002;2022-12-31T05:14:02;99963.94;;;3.50;100.00
50867;BME280;36839;51.946;21.002;2022-12-31T05:16:28;99950.91;;;3.52;100.00
50867;BME280;36839;51.946;21.002;2022-12-31T05:18:55;99965.99;;;3.54;100.00
50867;BME280;36839;51.946;21.002;2022-12-31T05:21:21;99965.22;;;3.56;100.00
50867;BME280;36839;51.946;21.002;2022-12-31T05:23:48;99967.48;;;3.59;100.00
50867;BME280;36839;51.946;21.002;2022-12-31T05:26:14;99956.36;;;3.61;100.00
50867;BME280;36839;51.946;21.002;2022-12-31T05:28:40;99956.36;;;3.61;100.00
50867;BME280;36839;51.946;21.002;2022-12-31T05:31:07;99957.02;;;3.65;100.00
50867;BME280;36839;51.946;21.002;2022-12-31T05:33:34;99967.02;;;3.71;100.00
50867;BME280;36839;51.946;21.002;2022-12-31T05:36:00;99966.16;;;3.80;100.00
50867;BME280;36839;51.946;21.002;2022-12-31T05:38:26;99955.44;;;4.09;100.00
50867;BME280;36839;51.946;21.002;2022-12-31T05:41:01;99963.02;;;4.27;100.00
50867;BME280;36839;51.946;21.002;2022-12-31T05:43:27;99955.70;;;4.42;100.00
50867;BME280;36839;51.946;21.002;2022-12-31T05:45:54;99964.14;;;4.64;100.00
50867;BME280;36839;51.946;21.002;2022-12-31T05:48:20;99964.14;;;4.64;100.00
50867;BME280;36839;51.946;21.002;2022-12-31T05:50:47;99963.42;;;4.92;100.00
50867;BME280;36839;51.946;21.002;2022-12-31T05:53:14;99963.42;;;4.92;100.00
50867;BME280;36839;51.946;21.002;2022-12-31T05:55:40;99951.94;;;5.04;100.00
50867;BME280;36839;51.946;21.002;2022-12-31T05:58:06;99954.36;;;5.15;100.00
50867;BME280;36839;51.946;21.002;2022-12-31T06:00:33;99946.11;;;5.27;100.00
50867;BME280;36839;51.946;21.002;2022-12-31T06:02:59;99934.98;;;5.31;100.00
50867;BME280;36839;51.946;21.002;2022-12-31T06:05:26;99936.97;;;5.35;100.00
50867;BME280;36839;51.946;21.002;2022-12-31T06:07:52;99940.59;;;5.38;100.00
50867;BME280;36839;51.946;21.002;2022-12-31T06:10:18;99931.08;;;5.41;100.00
50867;BME280;36839;51.946;21.002;2022-12-31T06:12:44;99931.08;;;5.41;100.00
50867;BME280;36839;51.946;21.002;2022-12-31T06:15:11;99935.27;;;5.46;100.00
50867;BME280;36839;51.946;21.002;2022-12-31T06:17:37;99929.75;;;5.43;100.00
50867;BME280;36839;51.946;21.002;2022-12-31T06:20:04;99935.84;;;5.48;100.00
50867;BME280;36839;51.946;21.002;2022-12-31T06:22:30;99935.84;;;5.48;100.00
50867;BME280;36839;51.946;21.002;2022-12-31T06:24:57;99931.56;;;5.52;100.00
50867;BME280;36839;51.946;21.002;2022-12-31T06:27:23;99926.55;;;5.49;100.00
50867;BME280;36839;51.946;21.002;2022-12-31T06:29:49;99930.44;;;5.51;100.00
50867;BME280;36839;51.946;21.002;2022-12-31T06:32:16;99930.44;;;5.51;100.00
50867;BME280;36839;51.946;21.002;2022-12-31T06:34:42;99943.64;;;5.54;100.00
50867;BME280;36839;51.946;21.002;2022-12-31T06:37:08;99943.64;;;5.54;100.00
50867;BME280;36839;51.946;21.002;2022-12-31T06:39:35;99956.59;;;5.58;100.00
50867;BME280;36839;51.946;21.002;2022-12-31T06:42:01;99955.77;;;5.58;100.00
50867;BME280;36839;51.946;21.002;2022-12-31T06:44:27;99958.79;;;5.59;100.00
50867;BME280;36839;51.946;21.002;2022-12-31T06:46:54;99961.10;;;5.64;100.00
50867;BME280;36839;51.946;21.002;2022-12-31T06:49:20;99961.10;;;5.64;100.00
50867;BME280;36839;51.946;21.002;2022-12-31T06:51:47;99954.58;;;5.68;100.00
50867;BME280;36839;51.946;21.002;2022-12-31T06:54:13;99949.42;;;5.69;100.00
50867;BME280;36839;51.946;21.002;2022-12-31T06:56:40;99958.23;;;5.71;100.00
50867;BME280;36839;51.946;21.002;2022-12-31T06:59:14;99965.50;;;5.65;100.00
50867;BME280;36839;51.946;21.002;2022-12-31T07:01:47;99972.39;;;5.68;100.00
50867;BME280;36839;51.946;21.002;2022-12-31T07:04:36;99967.17;;;5.66;100.00
50867;BME280;36839;51.946;21.002;2022-12-31T07:07:14;99972.56;;;5.61;100.00
50867;BME280;36839;51.946;21.002;2022-12-31T07:12:40;99988.30;;;5.68;100.00
50867;BME280;36839;51.946;21.002;2022-12-31T07:15:11;99981.81;;;5.72;100.00
50867;BME280;36839;51.946;21.002;2022-12-31T07:17:55;99975.79;;;5.72;100.00
50867;BME280;36839;51.946;21.002;2022-12-31T07:20:20;99985.78;;;5.79;100.00
50867;BME280;36839;51.946;21.002;2022-12-31T07:22:47;99985.78;;;5.79;100.00
50867;BME280;36839;51.946;21.002;2022-12-31T07:25:16;99999.39;;;5.88;100.00
50867;BME280;36839;51.946;21.002;2022-12-31T07:28:07;99999.39;;;5.88;100.00
50867;BME280;36839;51.946;21.002;2022-12-31T07:33:13;99990.02;;;5.98;100.00
50867;BME280;36839;51.946;21.002;2022-12-31T07:41:37;99998.75;;;6.12;100.00
50867;BME280;36839;51.946;21.002;2022-12-31T07:44:24;99998.75;;;6.12;100.00
50867;BME280;36839;51.946;21.002;2022-12-31T07:46:56;100006.08;;;6.23;100.00
50867;BME280;36839;51.946;21.002;2022-12-31T07:49:27;99986.63;;;6.24;100.00
50867;BME280;36839;51.946;21.002;2022-12-31T07:51:54;99988.68;;;6.32;100.00
50867;BME280;36839;51.946;21.002;2022-12-31T07:54:20;99997.30;;;6.38;100.00
50867;BME280;36839;51.946;21.002;2022-12-31T07:56:48;99991.34;;;6.43;100.00
50867;BME280;36839;51.946;21.002;2022-12-31T08:05:07;99998.88;;;6.50;100.00
50867;BME280;36839;51.946;21.002;2022-12-31T08:07:44;99996.84;;;6.60;100.00
50867;BME280;36839;51.946;21.002;2022-12-31T08:10:32;99996.84;;;6.60;100.00
50867;BME280;36839;51.946;21.002;2022-12-31T08:12:42;100002.48;;;6.70;100.00
50867;BME280;36839;51.946;21.002;2022-12-31T08:15:12;100000.37;;;6.75;100.00
50867;BME280;36839;51.946;21.002;2022-12-31T08:17:39;99986.14;;;6.78;100.00
50867;BME280;36839;51.946;21.002;2022-12-31T08:20:06;100006.31;;;6.86;100.00
50867;BME280;36839;51.946;21.002;2022-12-31T08:28:03;100013.16;;;7.03;100.00
50867;BME280;36839;51.946;21.002;2022-12-31T08:30:38;100013.16;;;7.03;100.00
50867;BME280;36839;51.946;21.002;2022-12-31T08:33:27;100021.45;;;7.08;100.00
50867;BME280;36839;51.946;21.002;2022-12-31T08:41:40;100031.27;;;7.21;100.00
50867;BME280;36839;51.946;21.002;2022-12-31T08:49:13;100041.52;;;7.28;100.00
50867;BME280;36839;51.946;21.002;2022-12-31T08:51:40;100045.55;;;7.39;100.00
50867;BME280;36839;51.946;21.002;2022-12-31T08:54:09;100045.55;;;7.39;100.00
50867;BME280;36839;51.946;21.002;2022-12-31T08:56:47;100039.80;;;7.63;100.00
50867;BME280;36839;51.946;21.002;2022-12-31T09:04:58;100029.67;;;7.88;100.00
50867;BME280;36839;51.946;21.002;2022-12-31T09:07:34;100030.61;;;7.98;100.00
50867;BME280;36839;51.946;21.002;2022-12-31T09:18:17;100025.94;;;7.99;100.00
50867;BME280;36839;51.946;21.002;2022-12-31T09:20:44;100026.06;;;8.12;100.00
50867;BME280;36839;51.946;21.002;2022-12-31T09:23:11;100026.06;;;8.12;100.00
50867;BME280;36839;51.946;21.002;2022-12-31T09:25:47;100022.09;;;8.24;100.00
50867;BME280;36839;51.946;21.002;2022-12-31T09:28:32;100007.54;;;8.29;100.00
50867;BME280;36839;51.946;21.002;2022-12-31T09:31:07;100002.95;;;8.35;100.00
50867;BME280;36839;51.946;21.002;2022-12-31T09:33:57;99999.84;;;8.31;100.00
50867;BME280;36839;51.946;21.002;2022-12-31T09:36:35;99999.84;;;8.31;100.00
50867;BME280;36839;51.946;21.002;2022-12-31T09:39:09;100004.08;;;8.39;100.00
50867;BME280;36839;51.946;21.002;2022-12-31T09:53:00;99993.41;;;8.45;100.00
50867;BME280;36839;51.946;21.002;2022-12-31T09:58:33;99991.50;;;8.48;100.00
50867;BME280;36839;51.946;21.002;2022-12-31T10:01:24;99964.80;;;8.46;100.00
50867;BME280;36839;51.946;21.002;2022-12-31T10:04:18;99951.05;;;8.48;100.00
50867;BME280;36839;51.946;21.002;2022-12-31T10:07:03;99942.24;;;8.49;100.00
50867;BME280;36839;51.946;21.002;2022-12-31T10:15:33;99944.53;;;8.62;100.00
50867;BME280;36839;51.946;21.002;2022-12-31T10:23:46;99948.00;;;8.82;100.00
50867;BME280;36839;51.946;21.002;2022-12-31T10:32:05;99928.56;;;9.04;100.00
50867;BME280;36839;51.946;21.002;2022-12-31T10:37:17;99928.39;;;9.23;100.00
50867;BME280;36839;51.946;21.002;2022-12-31T10:40:01;99928.39;;;9.23;100.00
50867;BME280;36839;51.946;21.002;2022-12-31T10:45:59;99939.22;;;9.42;100.00
50867;BME280;36839;51.946;21.002;2022-12-31T10:48:36;99946.14;;;9.50;100.00
50867;BME280;36839;51.946;21.002;2022-12-31T11:40:59;99895.54;;;10.48;100.00
50867;BME280;36839;51.946;21.002;2022-12-31T11:43:38;99886.42;;;10.55;100.00
50867;BME280;36839;51.946;21.002;2022-12-31T11:51:22;99893.03;;;10.67;100.00
50867;BME280;36839;51.946;21.002;2022-12-31T11:56:24;99883.06;;;10.76;100.00
50867;BME280;36839;51.946;21.002;2022-12-31T11:58:52;99882.52;;;10.74;100.00
50867;BME280;36839;51.946;21.002;2022-12-31T12:01:24;99881.42;;;10.72;100.00
50867;BME280;36839;51.946;21.002;2022-12-31T12:03:51;99883.36;;;10.72;100.00
50867;BME280;36839;51.946;21.002;2022-12-31T12:06:23;99873.14;;;10.67;100.00
50867;BME280;36839;51.946;21.002;2022-12-31T12:08:48;99881.14;;;10.74;100.00
50867;BME280;36839;51.946;21.002;2022-12-31T12:11:20;99875.05;;;10.77;100.00
50867;BME280;36839;51.946;21.002;2022-12-31T12:13:48;99883.06;;;10.81;100.00
50867;BME280;36839;51.946;21.002;2022-12-31T12:16:15;99883.06;;;10.81;100.00
50867;BME280;36839;51.946;21.002;2022-12-31T12:18:50;99884.98;;;10.83;100.00
50867;BME280;36839;51.946;21.002;2022-12-31T12:21:22;99871.97;;;10.88;100.00
50867;BME280;36839;51.946;21.002;2022-12-31T12:23:58;99870.06;;;10.84;100.00
50867;BME280;36839;51.946;21.002;2022-12-31T12:29:21;99870.08;;;10.81;100.00
50867;BME280;36839;51.946;21.002;2022-12-31T12:32:01;99866.75;;;10.79;100.00
50867;BME280;36839;51.946;21.002;2022-12-31T12:34:36;99857.67;;;10.71;100.00
50867;BME280;36839;51.946;21.002;2022-12-31T12:37:02;99857.67;;;10.71;100.00
50867;BME280;36839;51.946;21.002;2022-12-31T12:39:31;99878.92;;;10.76;100.00
50867;BME280;36839;51.946;21.002;2022-12-31T12:42:15;99871.45;;;10.84;100.00
50867;BME280;36839;51.946;21.002;2022-12-31T12:44:39;99857.63;;;10.79;100.00
50867;BME280;36839;51.946;21.002;2022-12-31T12:47:17;99860.68;;;10.82;100.00
50867;BME280;36839;51.946;21.002;2022-12-31T12:49:46;99850.45;;;10.83;100.00
50867;BME280;36839;51.946;21.002;2022-12-31T12:52:32;99849.63;;;10.82;100.00
50867;BME280;36839;51.946;21.002;2022-12-31T12:57:49;99836.38;;;10.82;100.00
50867;BME280;36839;51.946;21.002;2022-12-31T13:00:19;99836.38;;;10.82;100.00
50867;BME280;36839;51.946;21.002;2022-12-31T13:08:17;99841.91;;;10.74;100.00
50867;BME280;36839;51.946;21.002;2022-12-31T13:11:00;99828.93;;;10.75;100.00
50867;BME280;36839;51.946;21.002;2022-12-31T13:16:08;99838.34;;;10.71;100.00
50867;BME280;36839;51.946;21.002;2022-12-31T13:19:06;99836.41;;;10.72;100.00
50867;BME280;36839;51.946;21.002;2022-12-31T13:21:53;99849.39;;;10.71;100.00
50867;BME280;36839;51.946;21.002;2022-12-31T13:24:41;99849.39;;;10.71;100.00
50867;BME280;36839;51.946;21.002;2022-12-31T13:29:52;99831.16;;;10.68;100.00
50867;BME280;36839;51.946;21.002;2022-12-31T13:32:24;99832.52;;;10.70;100.00
50867;BME280;36839;51.946;21.002;2022-12-31T13:34:53;99828.13;;;10.72;100.00
50867;BME280;36839;51.946;21.002;2022-12-31T13:37:35;99828.93;;;10.75;100.00
50867;BME280;36839;51.946;21.002;2022-12-31T13:40:00;99841.08;;;10.76;100.00
50867;BME280;36839;51.946;21.002;2022-12-31T13:42:42;99841.08;;;10.76;100.00
50867;BME280;36839;51.946;21.002;2022-12-31T13:45:16;99826.14;;;10.82;100.00
50867;BME280;36839;51.946;21.002;2022-12-31T13:47:53;99826.14;;;10.82;100.00
50867;BME280;36839;51.946;21.002;2022-12-31T13:50:29;99833.61;;;10.82;100.00
50867;BME280;36839;51.946;21.002;2022-12-31T13:53:06;99827.80;;;10.83;100.00
50867;BME280;36839;51.946;21.002;2022-12-31T13:55:43;99827.80;;;10.83;100.00
50867;BME280;36839;51.946;21.002;2022-12-31T13:58:19;99834.69;;;10.86;100.00
50867;BME280;36839;51.946;21.002;2022-12-31T14:00:53;99839.39;;;10.85;100.00
50867;BME280;36839;51.946;21.002;2022-12-31T14:06:15;99862.56;;;10.90;100.00
50867;BME280;36839;51.946;21.002;2022-12-31T14:08:43;99867.57;;;10.90;100.00
50867;BME280;36839;51.946;21.002;2022-12-31T14:22:07;99866.16;;;11.00;100.00
50867;BME280;36839;51.946;21.002;2022-12-31T14:24:48;99863.63;;;11.06;100.00
50867;BME280;36839;51.946;21.002;2022-12-31T14:27:21;99861.14;;;11.10;100.00
50867;BME280;36839;51.946;21.002;2022-12-31T14:29:54;99864.73;;;11.10;100.00
50867;BME280;36839;51.946;21.002;2022-12-31T14:35:31;99859.45;;;11.14;100.00
50867;BME280;36839;51.946;21.002;2022-12-31T14:38:33;99870.48;;;11.22;100.00
50867;BME280;36839;51.946;21.002;2022-12-31T14:46:32;99872.33;;;11.36;100.00
50867;BME280;36839;51.946;21.002;2022-12-31T14:49:20;99872.33;;;11.36;100.00
50867;BME280;36839;51.946;21.002;2022-12-31T14:51:43;99872.03;;;11.43;100.00
50867;BME280;36839;51.946;21.002;2022-12-31T14:54:32;99872.03;;;11.43;100.00
50867;BME280;36839;51.946;21.002;2022-12-31T14:56:56;99875.61;;;11.49;100.00
50867;BME280;36839;51.946;21.002;2022-12-31T14:59:28;99871.46;;;11.49;100.00
50867;BME280;36839;51.946;21.002;2022-12-31T15:01:56;99871.46;;;11.49;100.00
50867;BME280;36839;51.946;21.002;2022-12-31T15:04:41;99880.05;;;11.47;100.00
50867;BME280;36839;51.946;21.002;2022-12-31T15:09:55;99886.12;;;11.49;100.00
50867;BME280;36839;51.946;21.002;2022-12-31T15:12:43;99875.05;;;11.49;100.00
50867;BME280;36839;51.946;21.002;2022-12-31T15:23:36;99870.65;;;11.43;100.00
50867;BME280;36839;51.946;21.002;2022-12-31T15:26:05;99860.41;;;11.43;100.00
50867;BME280;36839;51.946;21.002;2022-12-31T15:28:38;99864.27;;;11.45;100.00
50867;BME280;36839;51.946;21.002;2022-12-31T15:31:13;99865.06;;;11.53;100.00
50867;BME280;36839;51.946;21.002;2022-12-31T15:33:39;99858.44;;;11.52;100.00
50867;BME280;36839;51.946;21.002;2022-12-31T15:36:15;99876.40;;;11.57;100.00
50867;BME280;36839;51.946;21.002;2022-12-31T15:38:42;99879.14;;;11.59;100.00
50867;BME280;36839;51.946;21.002;2022-12-31T15:44:11;99870.58;;;11.58;100.00
50867;BME280;36839;51.946;21.002;2022-12-31T15:46:37;99859.52;;;11.58;100.00
50867;BME280;36839;51.946;21.002;2022-12-31T15:49:15;99859.78;;;11.59;100.00
50867;BME280;36839;51.946;21.002;2022-12-31T15:51:53;99864.44;;;11.64;100.00
50867;BME280;36839;51.946;21.002;2022-12-31T15:54:26;99869.15;;;11.63;100.00
50867;BME280;36839;51.946;21.002;2022-12-31T15:56:53;99862.79;;;11.63;100.00
50867;BME280;36839;51.946;21.002;2022-12-31T15:59:20;99873.56;;;11.64;100.00
50867;BME280;36839;51.946;21.002;2022-12-31T16:01:48;99873.56;;;11.64;100.00
50867;BME280;36839;51.946;21.002;2022-12-31T16:04:20;99869.41;;;11.64;100.00
50867;BME280;36839;51.946;21.002;2022-12-31T16:06:49;99868.04;;;11.67;100.00
50867;BME280;36839;51.946;21.002;2022-12-31T16:09:32;99865.25;;;11.69;100.00
50867;BME280;36839;51.946;21.002;2022-12-31T16:12:14;99862.48;;;11.69;100.00
50867;BME280;36839;51.946;21.002;2022-12-31T16:14:41;99874.13;;;11.66;100.00
50867;BME280;36839;51.946;21.002;2022-12-31T16:17:31;99868.03;;;11.64;100.00
50867;BME280;36839;51.946;21.002;2022-12-31T16:19:45;99868.03;;;11.64;100.00
50867;BME280;36839;51.946;21.002;2022-12-31T16:22:15;99878.78;;;11.71;100.00
50867;BME280;36839;51.946;21.002;2022-12-31T16:24:42;99878.20;;;11.74;100.00
50867;BME280;36839;51.946;21.002;2022-12-31T16:27:14;99878.20;;;11.74;100.00
50867;BME280;36839;51.946;21.002;2022-12-31T16:29:44;99875.16;;;11.78;100.00
50867;BME280;36839;51.946;21.002;2022-12-31T16:32:14;99875.16;;;11.78;100.00
50867;BME280;36839;51.946;21.002;2022-12-31T16:34:41;99886.50;;;11.82;100.00